createdAt,value
2017-08-06T00:00:19.432Z,17.90
2017-08-06T00:02:47.750Z,17.90
2017-08-06T00:05:16.051Z,17.90
2017-08-06T00:07:44.336Z,17.90
2017-08-06T00:10:12.663Z,17.80
2017-08-06T00:12:40.941Z,17.90
2017-08-06T00:15:09.225Z,17.80
2017-08-06T00:17:37.571Z,17.70
2017-08-06T00:20:05.847Z,17.70
2017-08-06T00:22:34.138Z,17.60
2017-08-06T00:25:02.502Z,17.50
2017-08-06T00:27:30.788Z,17.50
2017-08-06T00:29:59.097Z,17.40
2017-08-06T00:32:27.434Z,17.40
2017-08-06T00:34:55.711Z,17.40
2017-08-06T00:37:23.990Z,17.40
2017-08-06T00:39:52.299Z,17.30
2017-08-06T00:42:20.651Z,17.20
2017-08-06T00:44:49.695Z,17.00
2017-08-06T00:47:17.971Z,17.00
2017-08-06T00:49:47.056Z,16.90
2017-08-06T00:52:15.347Z,16.90
2017-08-06T00:54:43.635Z,16.90
2017-08-06T00:57:11.958Z,16.80
2017-08-06T00:59:40.269Z,16.80
2017-08-06T01:02:08.553Z,16.80
2017-08-06T01:04:36.873Z,16.70
2017-08-06T01:07:05.177Z,16.60
2017-08-06T01:09:33.510Z,16.60
2017-08-06T01:12:02.592Z,16.70
2017-08-06T01:14:30.879Z,16.60
2017-08-06T01:16:59.240Z,16.70
2017-08-06T01:19:28.303Z,16.60
2017-08-06T01:21:56.606Z,16.60
2017-08-06T01:24:27.836Z,16.60
2017-08-06T01:26:56.884Z,16.50
2017-08-06T01:29:25.163Z,16.50
2017-08-06T01:31:54.246Z,16.50
2017-08-06T01:34:22.533Z,16.40
2017-08-06T01:36:50.811Z,16.50
2017-08-06T01:39:19.135Z,16.50
2017-08-06T01:41:47.425Z,16.50
2017-08-06T01:44:15.708Z,16.50
2017-08-06T01:46:44.026Z,16.40
2017-08-06T01:49:12.320Z,16.40
2017-08-06T01:51:40.591Z,16.30
2017-08-06T01:54:09.678Z,16.30
2017-08-06T01:56:37.979Z,16.20
2017-08-06T01:59:06.259Z,16.20
2017-08-06T02:01:34.588Z,16.30
2017-08-06T02:04:02.867Z,16.10
2017-08-06T02:06:31.143Z,16.10
2017-08-06T02:08:59.454Z,16.00
2017-08-06T02:11:28.500Z,16.00
2017-08-06T02:13:56.778Z,16.00
2017-08-06T02:16:25.091Z,16.00
2017-08-06T02:18:53.371Z,16.10
2017-08-06T02:21:21.668Z,16.00
2017-08-06T02:23:49.990Z,15.90
2017-08-06T02:26:18.275Z,15.90
2017-08-06T02:28:46.570Z,15.90
2017-08-06T02:31:14.899Z,15.90
2017-08-06T02:33:43.187Z,15.80
2017-08-06T02:36:11.479Z,15.90
2017-08-06T02:38:39.799Z,15.90
2017-08-06T02:41:08.087Z,15.90
2017-08-06T02:43:36.367Z,15.90
2017-08-06T02:46:04.695Z,15.90
2017-08-06T02:48:32.977Z,15.70
2017-08-06T02:51:01.275Z,15.60
2017-08-06T02:53:29.594Z,15.50
2017-08-06T02:55:57.880Z,15.60
2017-08-06T02:58:26.154Z,15.60
2017-08-06T03:00:54.491Z,15.60
2017-08-06T03:03:22.802Z,15.60
2017-08-06T03:05:51.098Z,15.60
2017-08-06T03:08:19.422Z,15.60
2017-08-06T03:10:47.697Z,15.60
2017-08-06T03:13:15.988Z,15.60
2017-08-06T03:15:44.355Z,15.50
2017-08-06T03:18:12.630Z,15.50
2017-08-06T03:20:40.938Z,15.50
2017-08-06T03:23:09.262Z,15.40
2017-08-06T03:25:37.586Z,15.50
2017-08-06T03:28:06.627Z,15.50
2017-08-06T03:30:34.964Z,15.50
2017-08-06T03:33:03.249Z,15.40
2017-08-06T03:35:31.535Z,15.40
2017-08-06T03:37:59.859Z,15.30
2017-08-06T03:40:28.155Z,15.30
2017-08-06T03:42:56.435Z,15.30
2017-08-06T03:45:24.762Z,15.30
2017-08-06T03:47:53.048Z,15.30
2017-08-06T03:50:21.332Z,15.30
2017-08-06T03:52:49.649Z,15.30
2017-08-06T03:55:17.939Z,15.30
2017-08-06T03:57:47.012Z,15.30
2017-08-06T04:00:15.335Z,15.30
2017-08-06T04:02:43.611Z,15.30
2017-08-06T04:05:11.888Z,15.30
2017-08-06T04:07:40.251Z,15.20
2017-08-06T04:10:08.528Z,15.10
2017-08-06T04:12:36.827Z,15.00
2017-08-06T04:15:05.130Z,15.00
2017-08-06T04:17:33.420Z,15.00
2017-08-06T04:20:01.746Z,15.00
2017-08-06T04:22:30.024Z,15.00
2017-08-06T04:24:58.315Z,15.00
2017-08-06T04:27:26.639Z,15.00
2017-08-06T04:29:54.934Z,15.00
2017-08-06T04:32:23.219Z,14.90
2017-08-06T04:34:51.538Z,14.80
2017-08-06T04:37:19.815Z,14.80
2017-08-06T04:39:48.094Z,14.90
2017-08-06T04:42:17.203Z,15.00
2017-08-06T04:44:45.491Z,15.00
2017-08-06T04:47:13.782Z,15.00
2017-08-06T04:49:42.110Z,15.00
2017-08-06T04:52:11.174Z,15.10
2017-08-06T04:54:39.516Z,15.10
2017-08-06T04:57:07.852Z,15.30
2017-08-06T04:59:36.141Z,15.30
2017-08-06T05:02:04.428Z,15.60
2017-08-06T05:04:32.782Z,15.70
2017-08-06T05:07:01.067Z,15.80
2017-08-06T05:09:30.122Z,16.00
2017-08-06T05:11:58.444Z,16.00
2017-08-06T05:14:26.727Z,16.10
2017-08-06T05:16:55.011Z,16.30
2017-08-06T05:19:24.087Z,16.40
2017-08-06T05:21:52.405Z,16.40
2017-08-06T05:24:20.723Z,16.60
2017-08-06T05:26:49.778Z,16.70
2017-08-06T05:29:18.078Z,16.70
2017-08-06T05:31:46.402Z,16.80
2017-08-06T05:34:14.682Z,16.90
2017-08-06T05:36:42.970Z,17.10
2017-08-06T05:39:11.298Z,17.20
2017-08-06T05:41:39.591Z,17.20
2017-08-06T05:44:07.895Z,17.30
2017-08-06T05:46:36.257Z,17.40
2017-08-06T05:49:04.540Z,17.60
2017-08-06T05:51:32.818Z,17.80
2017-08-06T05:54:01.146Z,18.90
2017-08-06T05:56:29.447Z,20.60
2017-08-06T05:58:57.728Z,22.40
2017-08-06T06:01:26.044Z,24.00
2017-08-06T06:03:54.336Z,25.10
2017-08-06T06:06:22.639Z,26.20
2017-08-06T06:08:50.974Z,27.10
2017-08-06T06:11:19.258Z,27.90
2017-08-06T06:13:47.550Z,28.50
2017-08-06T06:16:15.862Z,28.70
2017-08-06T06:18:44.146Z,29.00
2017-08-06T06:21:12.431Z,29.40
2017-08-06T06:23:40.743Z,29.70
2017-08-06T06:26:09.030Z,30.10
2017-08-06T06:28:37.356Z,30.40
2017-08-06T06:31:05.643Z,30.80
2017-08-06T06:33:33.977Z,31.10
2017-08-06T06:36:02.326Z,31.40
2017-08-06T06:38:30.623Z,31.70
2017-08-06T06:40:58.903Z,31.90
2017-08-06T06:43:27.222Z,32.10
2017-08-06T06:45:55.515Z,32.40
2017-08-06T06:48:23.826Z,32.70
2017-08-06T06:50:52.919Z,32.80
2017-08-06T06:53:21.210Z,32.70
2017-08-06T06:55:49.503Z,32.80
2017-08-06T06:58:17.835Z,32.80
2017-08-06T07:00:46.124Z,33.10
2017-08-06T07:03:14.412Z,33.30
2017-08-06T07:05:42.723Z,33.40
2017-08-06T07:08:11.014Z,33.50
2017-08-06T07:10:39.302Z,33.50
2017-08-06T07:13:07.619Z,33.40
2017-08-06T07:15:35.900Z,33.60
2017-08-06T07:18:04.195Z,33.70
2017-08-06T07:20:32.503Z,33.70
2017-08-06T07:23:00.778Z,33.70
2017-08-06T07:25:29.109Z,33.70
2017-08-06T07:27:57.390Z,33.80
2017-08-06T07:30:25.670Z,33.70
2017-08-06T07:32:53.981Z,33.70
2017-08-06T07:35:22.263Z,33.80
2017-08-06T07:37:50.547Z,34.10
2017-08-06T07:40:18.891Z,34.50
2017-08-06T07:42:47.192Z,34.70
2017-08-06T07:45:15.494Z,34.70
2017-08-06T07:47:44.595Z,34.80
2017-08-06T07:50:12.886Z,34.80
2017-08-06T07:52:41.155Z,34.70
2017-08-06T07:55:11.067Z,34.30
2017-08-06T07:57:40.150Z,33.40
2017-08-06T08:00:08.494Z,33.40
2017-08-06T08:02:37.552Z,33.40
2017-08-06T08:05:05.845Z,33.40
2017-08-06T08:07:34.181Z,34.00
2017-08-06T08:10:02.502Z,34.30
2017-08-06T08:12:30.782Z,34.60
2017-08-06T08:14:59.099Z,34.80
2017-08-06T08:17:27.374Z,35.00
2017-08-06T08:19:55.733Z,35.30
2017-08-06T08:22:24.055Z,35.60
2017-08-06T08:24:52.335Z,35.70
2017-08-06T08:27:20.621Z,35.50
2017-08-06T08:29:48.930Z,34.50
2017-08-06T08:32:17.979Z,31.20
2017-08-06T08:34:46.287Z,31.10
2017-08-06T08:37:14.666Z,29.90
2017-08-06T08:39:43.714Z,28.30
2017-08-06T08:42:12.020Z,28.30
2017-08-06T08:44:40.339Z,28.00
2017-08-06T08:47:08.626Z,28.20
2017-08-06T08:49:36.899Z,28.20
2017-08-06T08:52:05.218Z,28.00
2017-08-06T08:54:33.500Z,27.50
2017-08-06T08:57:01.785Z,26.90
2017-08-06T08:59:30.136Z,26.50
2017-08-06T09:01:58.419Z,25.70
2017-08-06T09:04:26.699Z,25.10
2017-08-06T09:06:55.011Z,24.80
2017-08-06T09:09:24.055Z,24.10
2017-08-06T09:11:52.426Z,24.10
2017-08-06T09:14:21.511Z,25.30
2017-08-06T09:16:49.832Z,25.30
2017-08-06T09:19:18.119Z,26.10
2017-08-06T09:21:46.454Z,26.90
2017-08-06T09:24:15.526Z,27.80
2017-08-06T09:26:43.832Z,27.80
2017-08-06T09:29:12.162Z,27.80
2017-08-06T09:31:40.486Z,27.80
2017-08-06T09:34:08.783Z,27.70
2017-08-06T09:36:37.939Z,26.90
2017-08-06T09:39:06.220Z,26.90
2017-08-06T09:41:34.522Z,26.60
2017-08-06T09:44:03.663Z,25.90
2017-08-06T09:46:32.044Z,25.90
2017-08-06T09:49:00.326Z,25.70
2017-08-06T09:51:29.371Z,25.30
2017-08-06T09:53:57.706Z,25.30
2017-08-06T09:56:25.987Z,25.00
2017-08-06T09:58:54.303Z,24.80
2017-08-06T10:01:22.623Z,24.60
2017-08-06T10:03:50.916Z,24.50
2017-08-06T10:06:19.207Z,24.70
2017-08-06T10:08:47.641Z,25.10
2017-08-06T10:11:15.920Z,25.50
2017-08-06T10:13:44.207Z,25.60
2017-08-06T10:16:12.643Z,25.30
2017-08-06T10:18:40.927Z,25.20
2017-08-06T10:21:09.210Z,25.40
2017-08-06T10:23:37.559Z,25.60
2017-08-06T10:26:05.868Z,25.70
2017-08-06T10:28:34.196Z,25.90
2017-08-06T10:31:02.494Z,26.20
2017-08-06T10:33:30.788Z,26.40
2017-08-06T10:35:59.113Z,26.40
2017-08-06T10:38:28.175Z,26.40
2017-08-06T10:40:56.459Z,26.40
2017-08-06T10:43:24.774Z,26.60
2017-08-06T10:45:53.078Z,26.60
2017-08-06T10:48:21.355Z,26.70
2017-08-06T10:50:49.675Z,26.60
2017-08-06T10:53:17.957Z,26.50
2017-08-06T10:55:46.236Z,26.30
2017-08-06T10:58:14.542Z,26.00
2017-08-06T11:00:42.824Z,25.80
2017-08-06T11:03:11.115Z,25.40
2017-08-06T11:05:39.433Z,25.10
2017-08-06T11:08:07.719Z,24.90
2017-08-06T11:10:36.004Z,24.70
2017-08-06T11:13:05.358Z,24.70
2017-08-06T11:15:33.638Z,24.80
2017-08-06T11:18:01.916Z,24.80
2017-08-06T11:20:30.222Z,24.90
2017-08-06T11:22:58.499Z,25.00
2017-08-06T11:25:26.825Z,25.10
2017-08-06T11:27:55.159Z,25.00
2017-08-06T11:30:23.437Z,25.00
2017-08-06T11:32:51.714Z,25.00
2017-08-06T11:35:20.028Z,24.90
2017-08-06T11:37:48.308Z,25.10
2017-08-06T11:40:16.592Z,25.10
2017-08-06T11:42:44.914Z,25.20
2017-08-06T11:45:13.970Z,25.40
2017-08-06T11:47:42.252Z,25.40
2017-08-06T11:50:10.583Z,25.40
2017-08-06T11:52:38.876Z,25.50
2017-08-06T11:55:07.150Z,25.60
2017-08-06T11:57:35.463Z,25.70
2017-08-06T12:00:03.759Z,25.80
2017-08-06T12:02:32.048Z,25.90
2017-08-06T12:05:01.141Z,26.10
2017-08-06T12:07:29.440Z,26.00
2017-08-06T12:09:57.722Z,26.20
2017-08-06T12:12:26.073Z,26.20
2017-08-06T12:14:54.372Z,26.20
2017-08-06T12:17:24.042Z,26.20
2017-08-06T12:19:52.358Z,26.20
2017-08-06T12:22:20.641Z,26.30
2017-08-06T12:24:48.923Z,26.40
2017-08-06T12:27:18.019Z,26.70
2017-08-06T12:29:46.320Z,26.70
2017-08-06T12:32:14.630Z,26.80
2017-08-06T12:34:42.946Z,26.80
2017-08-06T12:37:11.231Z,26.80
2017-08-06T12:39:39.525Z,26.90
2017-08-06T12:42:07.900Z,26.80
2017-08-06T12:44:36.184Z,26.70
2017-08-06T12:47:04.537Z,26.40
2017-08-06T12:49:33.691Z,25.80
2017-08-06T12:52:02.039Z,25.80
2017-08-06T12:54:30.355Z,25.90
2017-08-06T12:56:58.942Z,25.90
2017-08-06T12:59:27.241Z,25.80
2017-08-06T13:01:55.535Z,25.70
2017-08-06T13:04:23.855Z,25.50
2017-08-06T13:06:52.163Z,25.30
2017-08-06T13:09:20.504Z,25.10
2017-08-06T13:11:49.554Z,24.90
2017-08-06T13:14:17.944Z,24.90
2017-08-06T13:16:46.285Z,24.70
2017-08-06T13:19:14.609Z,24.70
2017-08-06T13:21:42.895Z,24.60
2017-08-06T13:24:11.239Z,24.50
2017-08-06T13:26:39.547Z,24.40
2017-08-06T13:29:07.847Z,24.20
2017-08-06T13:31:36.969Z,24.10
2017-08-06T13:34:06.015Z,24.10
2017-08-06T13:36:34.306Z,24.00
2017-08-06T13:39:02.681Z,24.10
2017-08-06T13:41:30.979Z,24.10
2017-08-06T13:43:59.263Z,24.20
2017-08-06T13:46:27.595Z,24.10
2017-08-06T13:48:56.639Z,24.10
2017-08-06T13:51:24.971Z,24.10
2017-08-06T13:53:53.287Z,24.10
2017-08-06T13:56:21.591Z,24.00
2017-08-06T13:58:49.907Z,23.90
2017-08-06T14:01:18.246Z,23.90
2017-08-06T14:03:46.544Z,24.00
2017-08-06T14:06:14.864Z,24.10
2017-08-06T14:08:43.225Z,24.30
2017-08-06T14:11:11.544Z,24.40
2017-08-06T14:13:39.836Z,24.60
2017-08-06T14:16:08.162Z,24.80
2017-08-06T14:18:36.447Z,24.90
2017-08-06T14:21:04.741Z,24.90
2017-08-06T14:23:33.951Z,24.90
2017-08-06T14:26:02.254Z,25.00
2017-08-06T14:28:30.549Z,24.70
2017-08-06T14:30:58.863Z,24.60
2017-08-06T14:33:27.195Z,24.60
2017-08-06T14:35:55.478Z,24.60
2017-08-06T14:38:23.764Z,24.60
2017-08-06T14:40:52.113Z,24.60
2017-08-06T14:43:20.396Z,24.60
2017-08-06T14:45:48.684Z,24.30
2017-08-06T14:48:17.006Z,24.10
2017-08-06T14:50:45.297Z,24.00
2017-08-06T14:53:14.392Z,24.50
2017-08-06T14:55:42.733Z,24.40
2017-08-06T14:58:11.316Z,24.70
2017-08-06T15:00:39.673Z,24.90
2017-08-06T15:03:08.023Z,24.90
2017-08-06T15:05:36.914Z,24.90
2017-08-06T15:08:05.938Z,24.70
2017-08-06T15:10:34.277Z,24.50
2017-08-06T15:13:02.625Z,24.40
2017-08-06T15:15:30.980Z,24.40
2017-08-06T15:17:59.311Z,24.40
2017-08-06T15:20:27.627Z,24.50
2017-08-06T15:22:55.956Z,24.60
2017-08-06T15:25:24.324Z,24.70
2017-08-06T15:27:52.652Z,24.70
2017-08-06T15:30:20.938Z,24.70
2017-08-06T15:32:49.295Z,24.70
2017-08-06T15:35:17.686Z,24.70
2017-08-06T15:37:46.766Z,24.60
2017-08-06T15:40:15.129Z,24.50
2017-08-06T15:42:43.429Z,24.40
2017-08-06T15:45:11.747Z,24.40
2017-08-06T15:47:40.137Z,24.40
2017-08-06T15:50:08.452Z,24.50
2017-08-06T15:52:37.266Z,24.50
2017-08-06T15:55:05.638Z,24.30
2017-08-06T15:57:33.940Z,24.10
2017-08-06T16:00:02.247Z,24.20
2017-08-06T16:02:30.602Z,24.30
2017-08-06T16:04:58.928Z,24.50
2017-08-06T16:07:27.268Z,24.50
2017-08-06T16:09:55.624Z,24.50
2017-08-06T16:12:23.918Z,24.30
2017-08-06T16:14:53.010Z,24.40
2017-08-06T16:17:21.422Z,24.40
2017-08-06T16:19:49.742Z,24.50
2017-08-06T16:22:18.817Z,24.50
2017-08-06T16:24:47.931Z,24.50
2017-08-06T16:27:16.227Z,24.50
2017-08-06T16:29:44.558Z,24.50
2017-08-06T16:32:13.268Z,24.50
2017-08-06T16:34:42.349Z,24.40
2017-08-06T16:37:10.675Z,24.30
2017-08-06T16:39:39.009Z,24.30
2017-08-06T16:42:07.290Z,24.30
2017-08-06T16:44:35.579Z,24.20
2017-08-06T16:47:03.967Z,24.20
2017-08-06T16:49:32.277Z,24.10
2017-08-06T16:52:00.589Z,24.10
2017-08-06T16:54:28.932Z,24.00
2017-08-06T16:56:57.255Z,23.90
2017-08-06T16:59:25.594Z,23.80
2017-08-06T17:01:53.988Z,23.70
2017-08-06T17:04:22.293Z,23.60
2017-08-06T17:06:51.358Z,23.50
2017-08-06T17:09:19.683Z,23.50
2017-08-06T17:11:48.008Z,23.50
2017-08-06T17:14:17.111Z,23.30
2017-08-06T17:16:45.476Z,23.30
2017-08-06T17:19:13.794Z,23.30
2017-08-06T17:21:42.868Z,23.20
2017-08-06T17:24:11.279Z,23.20
2017-08-06T17:26:39.921Z,23.20
2017-08-06T17:29:09.004Z,23.20
2017-08-06T17:31:37.355Z,23.10
2017-08-06T17:34:06.416Z,23.10
2017-08-06T17:36:34.737Z,23.00
2017-08-06T17:39:03.064Z,23.00
2017-08-06T17:41:32.142Z,23.10
2017-08-06T17:44:01.250Z,23.10
2017-08-06T17:46:29.583Z,23.10
2017-08-06T17:48:58.218Z,23.20
2017-08-06T17:51:26.520Z,23.10
2017-08-06T17:53:54.880Z,23.10
2017-08-06T17:56:23.190Z,23.00
2017-08-06T17:58:51.499Z,22.90
2017-08-06T18:01:20.635Z,22.70
2017-08-06T18:03:48.938Z,22.70
2017-08-06T18:06:18.010Z,22.60
2017-08-06T18:08:47.091Z,22.50
2017-08-06T18:11:16.156Z,22.50
2017-08-06T18:13:45.252Z,22.40
2017-08-06T18:16:13.635Z,22.40
2017-08-06T18:18:42.659Z,22.40
2017-08-06T18:21:11.000Z,22.40
2017-08-06T18:23:39.422Z,22.40
2017-08-06T18:26:07.731Z,22.40
2017-08-06T18:28:36.031Z,22.40
2017-08-06T18:31:04.394Z,22.30
2017-08-06T18:33:33.502Z,22.10
2017-08-06T18:36:01.818Z,22.10
2017-08-06T18:38:30.183Z,22.00
2017-08-06T18:40:59.316Z,21.80
2017-08-06T18:43:27.617Z,21.80
2017-08-06T18:45:56.724Z,21.60
2017-08-06T18:48:25.045Z,21.60
2017-08-06T18:50:54.120Z,21.50
2017-08-06T18:53:22.601Z,21.40
2017-08-06T18:55:51.759Z,21.40
2017-08-06T18:58:20.153Z,21.30
2017-08-06T19:00:48.483Z,21.40
2017-08-06T19:03:16.797Z,21.30
2017-08-06T19:05:45.129Z,21.30
2017-08-06T19:08:13.459Z,21.20
2017-08-06T19:10:41.761Z,21.20
2017-08-06T19:13:10.806Z,21.10
2017-08-06T19:15:39.163Z,21.10
2017-08-06T19:18:07.471Z,21.10
2017-08-06T19:20:35.792Z,20.90
2017-08-06T19:23:05.290Z,20.80
2017-08-06T19:25:33.635Z,20.70
2017-08-06T19:28:01.989Z,20.70
2017-08-06T19:30:30.703Z,20.60
2017-08-06T19:32:59.952Z,20.60
2017-08-06T19:35:29.969Z,20.50
2017-08-06T19:37:59.677Z,20.50
2017-08-06T19:40:28.356Z,20.40
2017-08-06T19:42:56.677Z,20.40
2017-08-06T19:45:25.749Z,20.30
2017-08-06T19:47:54.083Z,20.30
2017-08-06T19:50:22.409Z,20.30
2017-08-06T19:52:50.709Z,20.20
2017-08-06T19:55:19.070Z,20.20
2017-08-06T19:57:47.359Z,20.10
2017-08-06T20:00:15.675Z,20.10
2017-08-06T20:02:44.058Z,20.00
2017-08-06T20:05:12.370Z,20.00
2017-08-06T20:07:40.698Z,19.90
2017-08-06T20:10:09.033Z,19.80
2017-08-06T20:12:37.369Z,19.70
2017-08-06T20:15:05.680Z,19.60
2017-08-06T20:17:34.015Z,19.50
2017-08-06T20:20:02.345Z,19.50
2017-08-06T20:22:30.640Z,19.50
2017-08-06T20:24:58.956Z,19.40
2017-08-06T20:27:27.244Z,19.40
2017-08-06T20:29:55.538Z,19.30
2017-08-06T20:32:23.891Z,19.30
2017-08-06T20:34:52.179Z,19.30
2017-08-06T20:37:20.460Z,19.30
2017-08-06T20:39:48.781Z,19.30
2017-08-06T20:42:17.067Z,19.20
2017-08-06T20:44:45.389Z,19.20
2017-08-06T20:47:13.689Z,19.10
2017-08-06T20:49:41.975Z,19.10
2017-08-06T20:52:10.295Z,19.10
2017-08-06T20:54:38.574Z,19.00
2017-08-06T20:57:06.863Z,19.00
2017-08-06T20:59:35.944Z,18.90
2017-08-06T21:02:04.316Z,18.90
2017-08-06T21:04:32.602Z,18.80
2017-08-06T21:07:00.903Z,18.80
2017-08-06T21:09:29.215Z,18.70
2017-08-06T21:11:57.569Z,18.70
2017-08-06T21:14:25.911Z,18.60
2017-08-06T21:16:54.185Z,18.60
2017-08-06T21:19:22.507Z,18.60
2017-08-06T21:21:50.824Z,18.50
2017-08-06T21:24:19.151Z,18.50
2017-08-06T21:26:47.479Z,18.40
2017-08-06T21:29:15.759Z,18.40
2017-08-06T21:31:44.100Z,18.40
2017-08-06T21:34:12.379Z,18.30
2017-08-06T21:36:40.655Z,18.30
2017-08-06T21:39:08.959Z,18.20
2017-08-06T21:41:37.247Z,18.10
2017-08-06T21:44:05.574Z,18.10
2017-08-06T21:46:37.184Z,18.10
2017-08-06T21:49:05.462Z,18.00
2017-08-06T21:51:33.799Z,18.00
2017-08-06T21:54:02.085Z,17.90
2017-08-06T21:56:30.413Z,17.90
2017-08-06T21:58:58.687Z,17.80
2017-08-06T22:01:26.982Z,17.80
2017-08-06T22:03:55.292Z,17.80
2017-08-06T22:06:23.596Z,17.70
2017-08-06T22:08:51.950Z,17.70
2017-08-06T22:11:20.995Z,17.60
2017-08-06T22:13:49.282Z,17.60
2017-08-06T22:16:17.599Z,17.60
2017-08-06T22:18:45.882Z,17.60
2017-08-06T22:21:14.170Z,17.50
2017-08-06T22:23:43.250Z,17.50
2017-08-06T22:26:11.539Z,17.40
2017-08-06T22:28:39.839Z,17.50
2017-08-06T22:31:08.152Z,17.40
2017-08-06T22:33:36.532Z,17.40
2017-08-06T22:36:04.820Z,17.30
2017-08-06T22:38:33.118Z,17.30
2017-08-06T22:41:01.445Z,17.30
2017-08-06T22:43:29.719Z,17.20
2017-08-06T22:45:58.032Z,17.20
2017-08-06T22:48:26.375Z,17.20
2017-08-06T22:50:54.664Z,17.10
2017-08-06T22:53:22.945Z,17.10
2017-08-06T22:55:51.309Z,17.00
2017-08-06T22:58:19.603Z,17.00
2017-08-06T23:00:47.896Z,17.00
2017-08-06T23:03:16.244Z,16.90
2017-08-06T23:05:44.531Z,16.90
2017-08-06T23:08:12.807Z,16.90
2017-08-06T23:10:41.111Z,16.80
2017-08-06T23:13:09.443Z,16.80
2017-08-06T23:15:37.781Z,16.80
2017-08-06T23:18:06.095Z,16.80
2017-08-06T23:20:34.383Z,16.70
2017-08-06T23:23:02.701Z,16.70
2017-08-06T23:25:31.056Z,16.70
2017-08-06T23:27:59.389Z,16.60
2017-08-06T23:30:29.277Z,16.50
2017-08-06T23:32:57.613Z,16.50
2017-08-06T23:35:25.903Z,16.40
2017-08-06T23:37:54.184Z,16.40
2017-08-06T23:40:22.487Z,16.40
2017-08-06T23:42:50.779Z,16.40
2017-08-06T23:45:19.120Z,16.20
2017-08-06T23:47:47.424Z,16.00
2017-08-06T23:50:15.716Z,15.90
2017-08-06T23:52:44.024Z,15.90
2017-08-06T23:55:12.303Z,15.90
2017-08-06T23:57:40.694Z,15.90
